Time;durP1;ratioP1;P1;durP2;ratioP2;P2;SDS_P1;SDS_P2;PMS_P1;PMS_P2;Temp;Humidity;BMP_temperature;BMP_pressure;BME280_temperature;BME280_humidity;BME280_pressure;Samples;Min_cycle;Max_cycle;Signal;HPM_P1;HPM_P2
2021/10/30 00:02:25;;;;;;;8.40;7.50;;;;;;;11.09;82.13;98621.16;5154181;27;20205;-73
2021/10/30 00:04:52;;;;;;;10.82;8.38;;;;;;;10.99;82.46;98624.53;5155149;27;20308;-72
2021/10/30 00:07:19;;;;;;;6.90;6.20;;;;;;;10.93;83.20;98625.00;5134033;27;20178;-73
2021/10/30 00:09:45;;;;;;;7.30;6.60;;;;;;;10.92;83.41;98623.28;5146028;27;20628;-73
2021/10/30 00:12:12;;;;;;;9.02;7.65;;;;;;;10.93;83.05;98626.84;5139484;27;20229;-72
2021/10/30 00:14:39;;;;;;;9.05;7.05;;;;;;;10.87;83.48;98617.38;5140637;27;20189;-74
2021/10/30 00:17:07;;;;;;;7.68;6.50;;;;;;;10.90;83.44;98618.97;5139094;27;20182;-72
2021/10/30 00:19:34;;;;;;;10.20;7.50;;;;;;;10.95;82.82;98620.34;5147195;27;20209;-73
2021/10/30 00:22:00;;;;;;;13.35;7.68;;;;;;;10.93;83.13;98619.59;5155088;27;20213;-73
2021/10/30 00:24:27;;;;;;;9.75;8.27;;;;;;;10.97;82.95;98625.63;5151926;27;20225;-73
2021/10/30 00:26:54;;;;;;;7.50;6.68;;;;;;;11.02;82.44;98632.38;5137547;27;20273;-73
2021/10/30 00:29:20;;;;;;;9.20;7.30;;;;;;;11.02;82.46;98624.28;5137661;27;20716;-73
2021/10/30 00:31:47;;;;;;;9.50;7.57;;;;;;;10.97;82.74;98617.56;5155235;27;20237;-72
2021/10/30 00:34:15;;;;;;;10.30;7.88;;;;;;;10.82;83.91;98630.31;5153182;27;20205;-74
2021/10/30 00:36:43;;;;;;;9.60;7.57;;;;;;;10.87;83.97;98620.06;5141440;27;20216;-73
2021/10/30 00:39:10;;;;;;;7.97;6.45;;;;;;;10.79;84.37;98614.41;5140089;27;20193;-74
2021/10/30 00:41:37;;;;;;;7.53;6.60;;;;;;;10.74;85.34;98608.47;5150046;27;20603;-73
2021/10/30 00:44:08;;;;;;;7.93;7.13;;;;;;;10.65;85.92;98623.50;5155246;27;20204;-72
2021/10/30 00:46:35;;;;;;;9.25;7.20;;;;;;;10.67;85.70;98620.69;5138385;27;20191;-71
2021/10/30 00:49:02;;;;;;;8.75;7.85;;;;;;;10.62;86.10;98612.94;5134406;27;20198;-73
2021/10/30 00:51:31;;;;;;;12.32;8.20;;;;;;;10.61;86.14;98608.56;5154446;27;20192;-72
2021/10/30 00:54:00;;;;;;;10.65;8.80;;;;;;;10.50;87.08;98601.25;5153324;27;20190;-72
2021/10/30 00:56:28;;;;;;;9.57;7.57;;;;;;;10.50;87.65;98605.78;5133473;27;20199;-73
2021/10/30 00:58:56;;;;;;;9.07;7.18;;;;;;;10.55;87.32;98606.31;5135386;27;20293;-73
2021/10/30 01:01:23;;;;;;;10.60;7.82;;;;;;;10.49;87.63;98595.97;5135811;27;20187;-72
2021/10/30 01:03:51;;;;;;;10.02;7.90;;;;;;;10.37;88.79;98592.38;5154203;27;20178;-72
2021/10/30 01:06:18;;;;;;;7.70;6.18;;;;;;;10.33;88.98;98589.03;5148510;27;20281;-73
2021/10/30 01:08:47;;;;;;;8.30;7.50;;;;;;;10.29;89.63;98595.63;5136413;27;20610;-71
2021/10/30 01:11:15;;;;;;;10.90;7.15;;;;;;;10.24;90.11;98595.06;5150572;27;20277;-73
2021/10/30 01:13:42;;;;;;;8.32;7.03;;;;;;;10.13;91.91;98585.09;5153712;27;20273;-74
2021/10/30 01:16:09;;;;;;;9.63;6.55;;;;;;;10.11;92.62;98580.81;5131810;27;20196;-73
2021/10/30 01:18:36;;;;;;;8.85;7.43;;;;;;;10.05;93.70;98582.09;5154133;27;20195;-74
2021/10/30 01:21:04;;;;;;;11.68;6.90;;;;;;;10.00;94.35;98571.66;5152070;27;20193;-72
2021/10/30 01:23:31;;;;;;;9.25;7.43;;;;;;;10.04;93.99;98580.38;5150777;27;20212;-73
2021/10/30 01:26:00;;;;;;;10.68;7.40;;;;;;;10.05;94.85;98570.47;5139944;27;20190;-73
2021/10/30 01:28:27;;;;;;;15.27;7.10;;;;;;;9.98;95.39;98559.31;5154262;27;20275;-73
2021/10/30 01:30:54;;;;;;;8.23;6.80;;;;;;;9.97;94.81;98553.06;5138340;27;20208;-73
2021/10/30 01:33:21;;;;;;;8.82;7.40;;;;;;;9.90;96.08;98556.28;5133574;27;20185;-74
2021/10/30 01:35:48;;;;;;;8.98;7.43;;;;;;;9.88;96.57;98558.22;5133651;27;20190;-72
2021/10/30 01:38:17;;;;;;;9.70;7.22;;;;;;;9.77;97.23;98557.19;5134225;27;20548;-73
2021/10/30 01:40:47;;;;;;;11.48;6.55;;;;;;;9.74;98.08;98552.00;5136377;27;20735;-74
2021/10/30 01:43:16;;;;;;;8.23;6.28;;;;;;;9.78;98.26;98558.03;5149097;27;20210;-74
2021/10/30 01:45:43;;;;;;;8.10;7.30;;;;;;;9.74;98.66;98565.44;5135432;27;20193;-74
2021/10/30 01:48:11;;;;;;;9.95;7.18;;;;;;;9.75;99.01;98553.75;5148018;27;20189;-73
2021/10/30 01:50:39;;;;;;;7.55;6.68;;;;;;;9.80;99.63;98561.47;5133170;27;20200;-71
2021/10/30 01:53:06;;;;;;;9.27;7.30;;;;;;;9.78;99.48;98568.78;5150178;27;20547;-73
2021/10/30 01:55:37;;;;;;;9.95;8.35;;;;;;;9.74;99.67;98556.53;5144789;27;20194;-73
2021/10/30 01:58:04;;;;;;;9.88;7.53;;;;;;;9.82;99.45;98546.97;5139986;27;20181;-71
2021/10/30 02:00:31;;;;;;;7.90;6.70;;;;;;;9.86;98.61;98539.53;5151513;27;20284;-72
2021/10/30 02:02:58;;;;;;;8.63;7.72;;;;;;;9.94;97.36;98549.72;5134109;27;20209;-71
2021/10/30 02:05:25;;;;;;;10.55;8.02;;;;;;;9.88;97.90;98547.47;5132299;27;20312;-73
2021/10/30 02:07:51;;;;;;;10.68;7.55;;;;;;;9.77;98.92;98541.06;5143449;27;20219;-72
2021/10/30 02:10:18;;;;;;;8.43;7.57;;;;;;;9.68;99.78;98541.72;5143115;27;20185;-73
2021/10/30 02:12:46;;;;;;;15.98;7.40;;;;;;;9.65;100.00;98541.91;5151631;27;20194;-73
2021/10/30 02:15:13;;;;;;;10.15;7.95;;;;;;;9.67;100.00;98534.59;5115743;27;20187;-74
2021/10/30 02:17:40;;;;;;;14.07;8.75;;;;;;;9.72;100.00;98524.41;5135770;27;20193;-71
2021/10/30 02:20:09;;;;;;;9.27;7.95;;;;;;;9.58;100.00;98513.75;5153005;27;20284;-75
2021/10/30 02:22:36;;;;;;;14.00;8.65;;;;;;;9.71;100.00;98514.59;5153247;27;20295;-73
2021/10/30 02:25:02;;;;;;;12.55;8.15;;;;;;;9.82;100.00;98517.38;5146369;27;20208;-73
2021/10/30 02:27:29;;;;;;;9.40;7.40;;;;;;;9.96;99.68;98519.06;5132829;27;20628;-72
2021/10/30 02:29:57;;;;;;;9.00;7.05;;;;;;;10.04;98.13;98513.16;5132994;27;20191;-73
2021/10/30 02:32:23;;;;;;;13.60;8.30;;;;;;;10.19;96.37;98514.69;5135319;27;20375;-73
2021/10/30 02:34:50;;;;;;;11.80;8.23;;;;;;;10.17;96.32;98496.94;5151336;27;20654;-73
2021/10/30 02:37:17;;;;;;;11.38;8.25;;;;;;;10.19;96.25;98503.06;5132830;27;20912;-73
2021/10/30 02:39:43;;;;;;;11.07;7.65;;;;;;;10.08;96.18;98506.53;5149051;27;20194;-71
2021/10/30 02:42:10;;;;;;;13.10;8.65;;;;;;;10.11;96.44;98506.34;5133884;27;20190;-72
2021/10/30 02:44:36;;;;;;;11.35;7.88;;;;;;;10.21;95.37;98501.97;5136892;27;20189;-73
2021/10/30 02:47:05;;;;;;;8.82;7.93;;;;;;;10.17;94.88;98483.50;5151003;27;20280;-73
2021/10/30 02:49:33;;;;;;;13.45;7.63;;;;;;;10.14;95.31;98483.75;5157265;27;20186;-73
2021/10/30 02:51:59;;;;;;;9.90;7.40;;;;;;;10.12;95.54;98475.78;5153049;27;20588;-71
2021/10/30 02:54:26;;;;;;;8.30;6.85;;;;;;;10.05;96.58;98473.66;5146489;27;20201;-72
2021/10/30 02:56:53;;;;;;;9.02;7.03;;;;;;;10.06;97.02;98470.84;5144496;27;20178;-72
2021/10/30 02:59:20;;;;;;;11.18;8.00;;;;;;;10.06;97.39;98473.53;5157047;27;20203;-72
2021/10/30 03:01:46;;;;;;;8.77;7.30;;;;;;;10.11;97.16;98459.78;5155376;27;20285;-72
2021/10/30 03:04:16;;;;;;;11.95;7.57;;;;;;;10.14;97.13;98457.69;5145401;27;20279;-72
2021/10/30 03:06:42;;;;;;;10.90;7.47;;;;;;;10.24;96.09;98463.22;5136603;27;20197;-72
2021/10/30 03:09:09;;;;;;;9.15;7.28;;;;;;;10.25;96.19;98451.53;5137351;27;20235;-72
2021/10/30 03:11:35;;;;;;;8.85;7.60;;;;;;;10.25;95.70;98450.66;5151925;27;20198;-72
2021/10/30 03:14:02;;;;;;;10.93;7.55;;;;;;;10.22;95.82;98444.53;5123549;27;20191;-71
2021/10/30 03:16:29;;;;;;;8.57;7.28;;;;;;;10.30;95.84;98443.97;5143948;27;20282;-72
2021/10/30 03:18:55;;;;;;;9.52;6.82;;;;;;;10.29;95.46;98444.97;5156751;27;20186;-73
2021/10/30 03:21:24;;;;;;;8.18;7.20;;;;;;;10.32;95.39;98447.41;5156189;27;20193;-72
2021/10/30 03:23:50;;;;;;;10.15;7.93;;;;;;;10.37;95.00;98422.84;5153091;27;20213;-73
2021/10/30 03:26:17;;;;;;;9.20;7.47;;;;;;;10.57;93.72;98443.72;5136097;27;20186;-73
2021/10/30 03:28:44;;;;;;;8.70;7.03;;;;;;;10.87;91.10;98445.03;5138441;27;20813;-73
2021/10/30 03:31:10;;;;;;;8.00;7.20;;;;;;;10.70;90.79;98432.88;5147634;27;20221;-73
2021/10/30 03:33:37;;;;;;;8.65;7.75;;;;;;;10.85;90.96;98422.75;5156212;27;20182;-74
2021/10/30 03:36:05;;;;;;;8.00;6.78;;;;;;;11.02;89.94;98416.03;5138598;27;20199;-73
2021/10/30 03:38:33;;;;;;;11.88;7.95;;;;;;;11.07;90.01;98424.63;5128077;27;20190;-73
2021/10/30 03:40:59;;;;;;;13.93;8.45;;;;;;;11.16;89.61;98415.81;5154820;27;20273;-72
2021/10/30 03:43:27;;;;;;;10.05;8.02;;;;;;;11.24;89.12;98407.13;5156126;27;20209;-73
2021/10/30 03:45:53;;;;;;;9.98;6.68;;;;;;;11.14;89.64;98408.81;5145269;27;20200;-72
2021/10/30 03:48:20;;;;;;;14.15;9.38;;;;;;;11.26;88.58;98391.66;5142730;27;20598;-73
2021/10/30 03:50:48;;;;;;;7.18;6.20;;;;;;;10.94;90.66;98388.84;5135705;27;20194;-72
2021/10/30 03:53:14;;;;;;;8.00;7.00;;;;;;;10.89;91.85;98385.66;5134684;27;20190;-72
2021/10/30 03:55:42;;;;;;;9.73;7.45;;;;;;;10.80;92.42;98379.16;5135070;27;20265;-72
2021/10/30 03:58:09;;;;;;;7.57;6.78;;;;;;;10.83;92.80;98382.50;5135623;27;20200;-74
2021/10/30 04:00:36;;;;;;;10.30;7.38;;;;;;;10.69;92.32;98376.47;5146843;27;20194;-73
2021/10/30 04:03:03;;;;;;;11.48;8.02;;;;;;;10.63;92.46;98381.34;5155017;27;20214;-73
2021/10/30 04:05:29;;;;;;;10.52;8.07;;;;;;;10.72;91.58;98384.28;5143106;27;20222;-73
2021/10/30 04:07:56;;;;;;;9.60;8.13;;;;;;;10.73;92.93;98376.09;5137174;27;20194;-73
2021/10/30 04:10:22;;;;;;;10.85;7.95;;;;;;;10.90;91.80;98380.16;5141813;27;20186;-73
2021/10/30 04:12:50;;;;;;;11.30;8.40;;;;;;;10.91;91.57;98381.03;5148964;27;20692;-73
2021/10/30 04:15:17;;;;;;;12.60;8.68;;;;;;;11.08;90.70;98372.47;5143827;27;20206;-73
2021/10/30 04:17:44;;;;;;;11.23;8.15;;;;;;;10.85;91.91;98369.75;5152466;27;20185;-74
2021/10/30 04:20:10;;;;;;;15.65;8.90;;;;;;;10.80;93.09;98373.78;5134604;27;20231;-73
2021/10/30 04:22:37;;;;;;;11.88;8.80;;;;;;;10.78;92.02;98373.88;5135253;27;20524;-73
2021/10/30 04:25:04;;;;;;;12.25;9.00;;;;;;;10.78;92.83;98365.81;5136031;27;20286;-73
2021/10/30 04:27:31;;;;;;;15.65;9.15;;;;;;;10.89;91.79;98372.22;5136345;27;20633;-71
2021/10/30 04:29:59;;;;;;;13.23;9.00;;;;;;;10.80;92.03;98373.78;5141904;27;20195;-73
2021/10/30 04:32:25;;;;;;;15.43;8.60;;;;;;;10.80;92.13;98371.94;5134121;27;20290;-74
2021/10/30 04:34:58;;;;;;;10.75;8.75;;;;;;;10.79;92.59;98383.69;5143782;27;20178;-73
2021/10/30 04:37:25;;;;;;;11.73;9.13;;;;;;;10.94;91.68;98376.22;5155207;27;20515;-73
2021/10/30 04:39:53;;;;;;;12.48;9.90;;;;;;;11.20;90.88;98370.63;5146919;27;20214;-73
2021/10/30 04:42:20;;;;;;;13.18;9.70;;;;;;;11.30;89.35;98374.28;5134798;27;20628;-74
2021/10/30 04:44:47;;;;;;;11.48;9.95;;;;;;;11.33;89.28;98376.75;5150532;27;20240;-73
2021/10/30 04:47:16;;;;;;;12.68;9.82;;;;;;;11.41;89.11;98374.28;5153043;27;20203;-73
2021/10/30 04:49:45;;;;;;;12.50;10.00;;;;;;;11.40;87.20;98366.34;5138724;27;20554;-73
2021/10/30 04:52:12;;;;;;;12.48;10.50;;;;;;;11.32;88.55;98363.38;5154818;27;20186;-73
2021/10/30 04:54:39;;;;;;;12.45;10.98;;;;;;;11.23;90.12;98367.69;5154791;27;20182;-73
2021/10/30 04:57:06;;;;;;;13.88;10.88;;;;;;;11.29;89.56;98375.28;5148196;27;20368;-73
2021/10/30 04:59:33;;;;;;;10.60;9.27;;;;;;;11.40;88.97;98379.81;5144879;27;20186;-73
2021/10/30 05:02:00;;;;;;;11.18;9.55;;;;;;;11.47;88.96;98373.78;5152857;27;20190;-74
2021/10/30 05:04:28;;;;;;;10.57;9.48;;;;;;;11.26;89.64;98381.78;5150363;27;20228;-74
2021/10/30 05:06:54;;;;;;;13.38;9.80;;;;;;;11.20;90.89;98370.63;5136446;27;20190;-73
2021/10/30 05:09:21;;;;;;;11.20;10.00;;;;;;;11.42;89.46;98367.91;5142213;27;20184;-73
2021/10/30 05:11:48;;;;;;;14.50;10.90;;;;;;;11.29;89.52;98367.19;5134730;27;20289;-73
2021/10/30 05:14:14;;;;;;;13.32;10.23;;;;;;;11.28;90.32;98376.25;5151735;27;20647;-72
2021/10/30 05:16:41;;;;;;;13.63;10.52;;;;;;;11.32;90.16;98358.00;5133434;27;20199;-72
2021/10/30 05:19:07;;;;;;;13.60;10.10;;;;;;;11.34;90.05;98351.50;5134206;27;20187;-73
2021/10/30 05:21:35;;;;;;;12.20;10.13;;;;;;;11.17;91.39;98343.91;5133764;27;20278;-72
2021/10/30 05:24:02;;;;;;;14.73;11.15;;;;;;;10.99;92.60;98344.44;5135855;27;20203;-74
2021/10/30 05:26:28;;;;;;;15.00;11.30;;;;;;;11.11;92.63;98339.03;5133961;27;20647;-73
2021/10/30 05:28:55;;;;;;;14.55;10.55;;;;;;;11.34;91.80;98337.19;5137909;27;20495;-73
2021/10/30 05:31:22;;;;;;;12.00;10.77;;;;;;;11.10;91.40;98324.69;5154359;27;20509;-73
2021/10/30 05:33:49;;;;;;;15.20;11.63;;;;;;;11.26;92.55;98332.38;5152417;27;20318;-73
2021/10/30 05:36:16;;;;;;;13.90;11.68;;;;;;;11.44;90.22;98346.22;5139786;27;20197;-73
2021/10/30 05:38:48;;;;;;;15.77;12.02;;;;;;;11.25;91.63;98331.53;5151453;27;20682;-74
2021/10/30 05:41:17;;;;;;;17.55;11.52;;;;;;;11.13;92.96;98347.84;5154139;27;20600;-73
2021/10/30 05:43:43;;;;;;;14.15;11.38;;;;;;;11.06;92.88;98337.56;5152228;27;20312;-74
2021/10/30 05:46:11;;;;;;;15.65;11.00;;;;;;;10.96;93.80;98344.66;5135442;27;20187;-73
2021/10/30 05:48:37;;;;;;;15.15;12.70;;;;;;;10.92;95.20;98335.13;5149607;27;20193;-73
2021/10/30 05:51:06;;;;;;;16.40;13.10;;;;;;;10.97;94.27;98330.22;5151607;27;20709;-73
2021/10/30 05:53:33;;;;;;;18.55;12.75;;;;;;;11.05;94.30;98332.28;5152925;27;20186;-73
2021/10/30 05:56:01;;;;;;;18.83;12.27;;;;;;;11.15;94.61;98345.91;5132957;27;20187;-73
2021/10/30 05:58:28;;;;;;;19.25;13.30;;;;;;;11.05;94.76;98333.16;5134322;27;20200;-72
2021/10/30 06:00:54;;;;;;;23.13;14.25;;;;;;;11.04;93.97;98334.13;5143745;27;21022;-73
2021/10/30 06:03:21;;;;;;;13.10;11.60;;;;;;;11.15;94.02;98340.50;5153038;27;20206;-74
2021/10/30 06:05:47;;;;;;;22.58;15.18;;;;;;;11.22;92.40;98342.56;5137865;27;20233;-73
2021/10/30 06:08:14;;;;;;;18.77;13.32;;;;;;;11.02;92.51;98343.31;5132695;27;20223;-72
2021/10/30 06:10:41;;;;;;;19.45;12.65;;;;;;;11.08;92.60;98348.22;5144291;27;20872;-72
2021/10/30 06:13:09;;;;;;;17.30;13.50;;;;;;;11.14;92.18;98346.88;5132819;27;20193;-72
2021/10/30 06:15:35;;;;;;;12.50;11.20;;;;;;;11.31;90.52;98356.31;5140704;27;20663;-72
2021/10/30 06:18:02;;;;;;;14.65;11.43;;;;;;;11.24;90.21;98361.31;5140305;27;20289;-72
2021/10/30 06:20:28;;;;;;;16.50;12.45;;;;;;;11.33;90.06;98365.97;5133078;27;20183;-74
2021/10/30 06:22:55;;;;;;;16.75;12.30;;;;;;;11.26;89.04;98371.00;5125830;27;20516;-75
2021/10/30 06:25:22;;;;;;;16.38;14.60;;;;;;;11.27;89.49;98371.84;5134810;27;20224;-73
2021/10/30 06:27:49;;;;;;;13.52;12.15;;;;;;;10.81;90.35;98370.13;5132928;28;20299;-72
2021/10/30 06:30:17;;;;;;;16.08;11.55;;;;;;;10.94;91.35;98380.78;5148967;27;20226;-73
2021/10/30 06:32:43;;;;;;;18.23;13.40;;;;;;;11.06;91.08;98385.19;5153344;27;20216;-72
2021/10/30 06:35:10;;;;;;;15.75;11.77;;;;;;;11.05;91.57;98388.84;5136015;27;20179;-73
2021/10/30 06:37:38;;;;;;;14.88;11.23;;;;;;;11.32;91.00;98406.50;5132603;27;20618;-73
2021/10/30 06:40:08;;;;;;;18.00;13.68;;;;;;;11.34;90.25;98400.00;5145507;27;20619;-72
2021/10/30 06:42:35;;;;;;;14.65;11.95;;;;;;;11.10;91.49;98394.72;5151822;27;20289;-72
2021/10/30 06:45:03;;;;;;;17.10;12.43;;;;;;;11.04;94.48;98374.53;5136457;27;20297;-74
2021/10/30 06:47:31;;;;;;;13.68;11.90;;;;;;;10.69;97.01;98371.06;5148220;27;20269;-73
2021/10/30 06:49:59;;;;;;;17.48;13.15;;;;;;;10.79;99.73;98378.31;5125961;27;20191;-74
2021/10/30 06:52:31;;;;;;;15.65;12.70;;;;;;;10.92;100.00;98397.06;5143564;27;20190;-73
2021/10/30 06:54:57;;;;;;;18.65;13.82;;;;;;;11.24;97.63;98382.88;5150104;27;20268;-74
2021/10/30 06:57:24;;;;;;;21.17;13.30;;;;;;;11.22;96.86;98379.44;5138747;27;20190;-72
2021/10/30 06:59:50;;;;;;;14.10;12.18;;;;;;;11.16;97.87;98374.53;5150729;27;20609;-72
2021/10/30 07:02:17;;;;;;;16.05;12.95;;;;;;;11.09;97.31;98373.31;5152779;27;20292;-73
2021/10/30 07:04:45;;;;;;;13.60;11.80;;;;;;;10.78;100.00;98371.19;5136188;27;20230;-73
2021/10/30 07:07:12;;;;;;;14.85;12.25;;;;;;;10.91;100.00;98371.09;5146826;27;20286;-73
2021/10/30 07:09:38;;;;;;;16.17;12.10;;;;;;;10.80;100.00;98366.56;5132005;28;20229;-73
2021/10/30 07:12:05;;;;;;;17.13;13.00;;;;;;;10.82;100.00;98375.38;5138017;27;20206;-72
2021/10/30 07:14:32;;;;;;;19.38;14.45;;;;;;;10.84;100.00;98381.50;5122050;27;20190;-73
2021/10/30 07:16:59;;;;;;;19.58;13.70;;;;;;;10.91;100.00;98372.94;5123162;27;20587;-73
2021/10/30 07:19:26;;;;;;;16.55;14.57;;;;;;;10.66;100.00;98376.72;5134472;27;20285;-71
2021/10/30 07:21:54;;;;;;;19.13;16.15;;;;;;;10.82;100.00;98393.38;5139131;27;20182;-74
2021/10/30 07:24:21;;;;;;;16.80;13.55;;;;;;;10.84;100.00;98386.88;5148419;27;20217;-72
2021/10/30 07:26:47;;;;;;;21.83;15.98;;;;;;;10.94;100.00;98380.78;5132125;27;20653;-72
2021/10/30 07:29:14;;;;;;;17.15;13.90;;;;;;;10.92;100.00;98386.31;5135390;27;20185;-73
2021/10/30 07:31:41;;;;;;;17.08;13.70;;;;;;;10.99;100.00;98392.91;5150984;27;20184;-74
2021/10/30 07:34:08;;;;;;;16.67;14.35;;;;;;;10.94;100.00;98391.53;5141040;27;20194;-74
2021/10/30 07:36:34;;;;;;;18.92;13.50;;;;;;;10.87;100.00;98388.47;5136629;27;20274;-73
2021/10/30 07:39:02;;;;;;;31.40;17.92;;;;;;;11.07;100.00;98387.75;5152654;27;20278;-73
2021/10/30 07:41:29;;;;;;;22.10;14.40;;;;;;;11.20;100.00;98387.66;5136296;27;20194;-73
2021/10/30 07:43:56;;;;;;;20.48;15.02;;;;;;;11.20;100.00;98371.47;5137665;27;20210;-74
2021/10/30 07:46:23;;;;;;;21.92;15.23;;;;;;;11.17;100.00;98378.94;5134990;27;20202;-73
2021/10/30 07:48:51;;;;;;;17.90;13.63;;;;;;;11.23;100.00;98373.06;5134331;27;20191;-74
2021/10/30 07:51:17;;;;;;;19.33;15.00;;;;;;;11.15;100.00;98379.06;5134939;27;20210;-73
2021/10/30 07:53:44;;;;;;;20.38;15.93;;;;;;;11.11;100.00;98369.53;5135555;27;20644;-72
2021/10/30 07:56:12;;;;;;;21.45;15.82;;;;;;;11.05;100.00;98384.31;5140089;27;20196;-73
2021/10/30 07:58:40;;;;;;;18.58;14.55;;;;;;;11.13;100.00;98366.72;5141499;27;20278;-73
2021/10/30 08:01:06;;;;;;;21.58;16.40;;;;;;;10.80;100.00;98373.78;5133720;27;20198;-72
2021/10/30 08:03:33;;;;;;;18.17;14.73;;;;;;;11.04;100.00;98369.16;5148980;27;20277;-72
2021/10/30 08:06:00;;;;;;;18.05;15.38;;;;;;;11.04;100.00;98369.16;5154874;27;20230;-72
2021/10/30 08:08:26;;;;;;;18.08;14.80;;;;;;;11.16;100.00;98369.16;5155624;27;20179;-71
2021/10/30 08:10:53;;;;;;;17.35;14.05;;;;;;;11.13;100.00;98369.41;5149508;27;20223;-73
2021/10/30 08:13:21;;;;;;;19.67;14.68;;;;;;;11.22;100.00;98361.44;5134215;27;20285;-73
2021/10/30 08:15:48;;;;;;;19.80;15.70;;;;;;;11.32;100.00;98366.94;5134042;27;20222;-72
2021/10/30 08:18:14;;;;;;;16.38;13.63;;;;;;;11.19;100.00;98358.13;5143870;27;20246;-72
2021/10/30 08:20:41;;;;;;;21.30;16.15;;;;;;;11.23;100.00;98344.28;5135086;27;20195;-73
2021/10/30 08:23:08;;;;;;;22.92;17.23;;;;;;;11.30;100.00;98335.72;5133743;27;20760;-73
2021/10/30 08:25:35;;;;;;;19.75;15.88;;;;;;;11.27;100.00;98334.97;5133408;27;20218;-72
2021/10/30 08:28:02;;;;;;;21.17;17.05;;;;;;;11.34;100.00;98339.88;5136316;27;20205;-74
2021/10/30 08:30:30;;;;;;;21.38;15.32;;;;;;;11.41;100.00;98339.22;5134343;27;20281;-73
2021/10/30 08:32:57;;;;;;;23.17;16.45;;;;;;;11.46;100.00;98350.53;5137398;27;20198;-71
2021/10/30 08:35:24;;;;;;;17.20;14.70;;;;;;;11.44;100.00;98347.09;5152689;27;20185;-72
2021/10/30 08:37:50;;;;;;;17.42;13.95;;;;;;;11.18;100.00;98345.66;5155048;27;20194;-72
2021/10/30 08:40:17;;;;;;;19.70;15.05;;;;;;;11.19;100.00;98353.63;5148121;27;20186;-72
2021/10/30 08:42:47;;;;;;;20.05;15.82;;;;;;;11.47;100.00;98344.13;5133801;27;20194;-72
2021/10/30 08:45:14;;;;;;;17.85;13.77;;;;;;;11.31;100.00;98345.53;5134021;27;20297;-72
2021/10/30 08:47:44;;;;;;;21.60;13.93;;;;;;;11.19;100.00;98355.44;5134287;27;20198;-72
2021/10/30 08:50:11;;;;;;;18.67;14.93;;;;;;;11.28;100.00;98352.00;5134378;27;20203;-73
2021/10/30 08:52:39;;;;;;;19.65;15.45;;;;;;;11.18;100.00;98348.34;5143762;27;20277;-73
2021/10/30 08:55:07;;;;;;;17.65;14.55;;;;;;;11.20;100.00;98349.06;5133031;27;20218;-74
2021/10/30 08:57:34;;;;;;;22.50;16.70;;;;;;;11.27;100.00;98339.50;5133655;27;20266;-72
2021/10/30 09:00:19;;;;;;;21.35;15.20;;;;;;;11.38;100.00;98339.50;5136293;27;20196;-73
2021/10/30 09:02:55;;;;;;;18.92;15.55;;;;;;;11.35;100.00;98342.44;5146013;27;20230;-73
2021/10/30 09:05:23;;;;;;;21.15;14.70;;;;;;;11.50;100.00;98328.69;5154255;27;20985;-73
2021/10/30 09:07:51;;;;;;;20.13;15.38;;;;;;;11.51;100.00;98333.09;5154523;27;20250;-74
2021/10/30 09:10:24;;;;;;;19.05;15.05;;;;;;;11.39;100.00;98329.56;5153574;27;20199;-73
2021/10/30 09:12:56;;;;;;;17.48;14.90;;;;;;;11.52;100.00;98332.97;5141159;27;20197;-73
2021/10/30 09:15:34;;;;;;;21.48;14.77;;;;;;;11.41;100.00;98328.47;5147384;27;20194;-74
2021/10/30 09:18:05;;;;;;;19.38;14.48;;;;;;;11.43;100.00;98313.03;5141686;27;20551;-72
2021/10/30 09:20:33;;;;;;;18.23;14.18;;;;;;;11.37;100.00;98323.44;5148356;27;20272;-73
2021/10/30 09:23:00;;;;;;;20.42;13.70;;;;;;;11.29;100.00;98316.00;5143427;27;20519;-72
2021/10/30 09:25:27;;;;;;;28.85;20.33;;;;;;;11.46;100.00;98328.06;5134284;27;20210;-73
2021/10/30 09:27:55;;;;;;;18.05;14.70;;;;;;;11.45;100.00;98329.91;5136728;27;20191;-72
2021/10/30 09:30:25;;;;;;;16.02;13.60;;;;;;;11.57;100.00;98319.97;5133131;27;20179;-74
2021/10/30 09:32:58;;;;;;;13.98;12.27;;;;;;;11.66;100.00;98319.19;5133760;27;20205;-75
2021/10/30 09:35:31;;;;;;;14.60;12.07;;;;;;;11.57;100.00;98321.81;5133035;27;20543;-71
2021/10/30 09:37:59;;;;;;;14.50;11.65;;;;;;;11.43;100.00;98323.81;5142228;27;20538;-71
2021/10/30 09:40:28;;;;;;;15.00;12.40;;;;;;;11.37;100.00;98318.06;5154139;27;20188;-73
2021/10/30 09:43:07;;;;;;;14.95;13.43;;;;;;;11.25;100.00;98323.47;5140563;27;20588;-73
2021/10/30 09:45:37;;;;;;;16.98;14.07;;;;;;;11.43;100.00;98312.16;5132689;27;20216;-73
2021/10/30 09:48:04;;;;;;;16.75;13.35;;;;;;;11.43;100.00;98306.78;5133594;27;20198;-74
2021/10/30 09:50:33;;;;;;;14.15;12.02;;;;;;;11.47;100.00;98306.41;5133379;27;20197;-73
2021/10/30 09:53:02;;;;;;;15.90;12.52;;;;;;;11.56;100.00;98302.09;5133204;27;20277;-74
2021/10/30 09:55:29;;;;;;;16.58;12.52;;;;;;;11.62;100.00;98300.72;5142777;27;20194;-73
2021/10/30 09:58:03;;;;;;;19.75;14.23;;;;;;;11.68;100.00;98284.88;5151917;27;20190;-72
2021/10/30 10:00:31;;;;;;;18.05;13.73;;;;;;;11.84;100.00;98276.34;5134498;27;20552;-72
2021/10/30 10:02:59;;;;;;;18.50;15.00;;;;;;;11.74;100.00;98275.44;5131582;27;20205;-72
2021/10/30 10:05:27;;;;;;;21.95;14.35;;;;;;;11.80;100.00;98269.53;5132563;27;20230;-73
2021/10/30 10:07:56;;;;;;;13.80;11.30;;;;;;;12.05;100.00;98284.53;5132366;27;20195;-73
2021/10/30 10:10:24;;;;;;;14.38;11.50;;;;;;;12.31;99.48;98265.25;5133050;27;20266;-73
2021/10/30 10:12:53;;;;;;;13.00;11.27;;;;;;;12.40;98.09;98277.09;5132413;27;20230;-72
2021/10/30 10:15:21;;;;;;;13.70;10.40;;;;;;;12.57;96.55;98273.75;5132756;27;20628;-72
2021/10/30 10:17:49;;;;;;;12.73;10.32;;;;;;;12.61;96.42;98269.81;5132699;28;20187;-72
2021/10/30 10:20:16;;;;;;;12.63;10.57;;;;;;;12.71;96.03;98268.00;5148251;27;20259;-73
2021/10/30 10:22:43;;;;;;;13.15;10.20;;;;;;;12.62;96.33;98266.13;5142180;27;20772;-72
2021/10/30 10:25:32;;;;;;;12.85;9.60;;;;;;;12.52;98.37;98274.16;5135859;27;20276;-73
2021/10/30 10:28:21;;;;;;;15.13;12.70;;;;;;;12.58;99.02;98264.69;5124328;27;20253;-72
2021/10/30 10:30:59;;;;;;;11.07;9.32;;;;;;;12.43;98.68;98261.47;5133353;27;20275;-72
2021/10/30 10:33:27;;;;;;;18.52;14.18;;;;;;;12.72;97.76;98261.59;5132019;28;20271;-72
2021/10/30 10:36:20;;;;;;;11.82;10.23;;;;;;;12.71;98.35;98250.97;5145626;27;20286;-73
2021/10/30 10:39:09;;;;;;;30.27;19.80;;;;;;;12.83;96.05;98257.97;5134691;27;20183;-74
2021/10/30 10:42:00;;;;;;;11.45;9.43;;;;;;;12.72;96.30;98268.88;5146260;27;20192;-72
2021/10/30 10:45:02;;;;;;;13.30;11.10;;;;;;;12.66;99.37;98267.56;5120076;27;20187;-73
2021/10/30 10:48:01;;;;;;;14.13;11.10;;;;;;;12.56;100.00;98280.16;5127112;27;20268;-72
2021/10/30 10:50:46;;;;;;;15.90;11.40;;;;;;;12.61;100.00;98279.75;5131861;27;20778;-73
2021/10/30 10:53:32;;;;;;;15.90;11.35;;;;;;;12.61;100.00;98271.66;5132224;28;20549;-72
2021/10/30 10:56:08;;;;;;;17.70;12.15;;;;;;;12.59;100.00;98276.31;5132135;28;20175;-72
2021/10/30 10:59:18;;;;;;;14.85;11.82;;;;;;;12.58;100.00;98261.97;5132383;28;20598;-73
2021/10/30 11:02:20;;;;;;;13.18;11.75;;;;;;;12.41;100.00;98268.00;5133623;27;20264;-74
2021/10/30 11:05:24;;;;;;;11.23;9.82;;;;;;;12.34;100.00;98254.16;5133645;27;20231;-73
2021/10/30 11:08:32;;;;;;;13.65;11.02;;;;;;;12.24;100.00;98243.31;5134398;27;20188;-73
2021/10/30 11:11:18;;;;;;;14.45;10.88;;;;;;;12.30;100.00;98242.81;5135705;27;20191;-73
2021/10/30 11:14:01;;;;;;;12.35;10.70;;;;;;;12.36;100.00;98240.53;5136122;27;20184;-73
2021/10/30 11:16:32;;;;;;;16.13;11.07;;;;;;;12.30;100.00;98236.53;5133291;27;20224;-73
2021/10/30 11:19:14;;;;;;;14.02;12.07;;;;;;;12.34;100.00;98239.81;5135961;27;20230;-73
2021/10/30 11:21:44;;;;;;;12.82;10.98;;;;;;;12.46;100.00;98234.22;5136144;27;20627;-73
2021/10/30 11:24:19;;;;;;;12.20;10.88;;;;;;;12.41;100.00;98227.50;5136089;27;20204;-73
2021/10/30 11:27:04;;;;;;;13.10;10.55;;;;;;;12.42;100.00;98218.44;5136004;27;20246;-73
2021/10/30 11:29:31;;;;;;;11.25;10.07;;;;;;;12.48;100.00;98221.44;5134856;27;20216;-75